sensor_id;sensor_type;location;lat;lon;timestamp;pressure;altitude;pressure_sealevel;temperature;humidity
82927;BME280;72788;40.218;44.486;2023-12-04T00:02:14;89448.38;;;6.46;40.87
82927;BME280;72788;40.218;44.486;2023-12-04T00:04:40;89446.91;;;6.49;41.23
82927;BME280;72788;40.218;44.486;2023-12-04T00:07:05;89442.78;;;6.48;41.06
82927;BME280;72788;40.218;44.486;2023-12-04T00:09:31;89441.63;;;6.45;41.33
82927;BME280;72788;40.218;44.486;2023-12-04T00:11:57;89440.91;;;6.48;41.35
82927;BME280;72788;40.218;44.486;2023-12-04T00:14:22;89431.50;;;6.47;41.08
82927;BME280;72788;40.218;44.486;2023-12-04T00:16:48;89444.25;;;6.45;41.28
82927;BME280;72788;40.218;44.486;2023-12-04T00:19:14;89436.38;;;6.45;41.42
82927;BME280;72788;40.218;44.486;2023-12-04T00:21:39;89438.22;;;6.45;41.39
82927;BME280;72788;40.218;44.486;2023-12-04T00:24:05;89441.38;;;6.54;41.53
82927;BME280;72788;40.218;44.486;2023-12-04T00:26:31;89424.16;;;6.56;41.49
82927;BME280;72788;40.218;44.486;2023-12-04T00:28:56;89429.06;;;6.58;41.35
82927;BME280;72788;40.218;44.486;2023-12-04T00:31:22;89433.25;;;6.62;41.17
82927;BME280;72788;40.218;44.486;2023-12-04T00:33:47;89426.91;;;6.67;41.06
82927;BME280;72788;40.218;44.486;2023-12-04T00:36:13;89429.59;;;6.71;40.96
82927;BME280;72788;40.218;44.486;2023-12-04T00:38:39;89434.09;;;6.70;41.45
82927;BME280;72788;40.218;44.486;2023-12-04T00:41:05;89430.22;;;6.60;41.55
82927;BME280;72788;40.218;44.486;2023-12-04T00:43:31;89430.88;;;6.54;41.61
82927;BME280;72788;40.218;44.486;2023-12-04T00:45:56;89424.50;;;6.55;41.41
82927;BME280;72788;40.218;44.486;2023-12-04T00:48:22;89427.59;;;6.60;41.61
82927;BME280;72788;40.218;44.486;2023-12-04T00:50:48;89418.19;;;6.59;41.57
82927;BME280;72788;40.218;44.486;2023-12-04T00:53:13;89428.38;;;6.64;41.60
82927;BME280;72788;40.218;44.486;2023-12-04T00:55:39;89424.28;;;6.67;40.86
82927;BME280;72788;40.218;44.486;2023-12-04T00:58:05;89430.34;;;6.71;40.72
82927;BME280;72788;40.218;44.486;2023-12-04T01:00:30;89426.56;;;6.69;41.14
82927;BME280;72788;40.218;44.486;2023-12-04T01:02:56;89425.41;;;6.66;41.38
82927;BME280;72788;40.218;44.486;2023-12-04T01:05:22;89432.53;;;6.65;41.16
82927;BME280;72788;40.218;44.486;2023-12-04T01:07:47;89420.84;;;6.63;41.01
82927;BME280;72788;40.218;44.486;2023-12-04T01:10:13;89430.22;;;6.60;41.37
82927;BME280;72788;40.218;44.486;2023-12-04T01:12:39;89431.72;;;6.61;40.86
82927;BME280;72788;40.218;44.486;2023-12-04T01:15:05;89427.59;;;6.60;41.16
82927;BME280;72788;40.218;44.486;2023-12-04T01:17:30;89431.00;;;6.64;40.99
82927;BME280;72788;40.218;44.486;2023-12-04T01:19:56;89431.41;;;6.66;41.64
82927;BME280;72788;40.218;44.486;2023-12-04T01:22:23;89432.22;;;6.71;41.21
82927;BME280;72788;40.218;44.486;2023-12-04T01:24:48;89435.25;;;6.73;40.82
82927;BME280;72788;40.218;44.486;2023-12-04T01:27:14;89442.03;;;6.74;40.81
82927;BME280;72788;40.218;44.486;2023-12-04T01:29:40;89436.34;;;6.72;40.80
82927;BME280;72788;40.218;44.486;2023-12-04T01:32:06;89437.88;;;6.73;40.60
82927;BME280;72788;40.218;44.486;2023-12-04T01:34:31;89438.25;;;6.75;40.98
82927;BME280;72788;40.218;44.486;2023-12-04T01:36:57;89440.50;;;6.73;41.47
82927;BME280;72788;40.218;44.486;2023-12-04T01:39:23;89440.09;;;6.71;41.35
82927;BME280;72788;40.218;44.486;2023-12-04T01:41:48;89443.47;;;6.71;40.96
82927;BME280;72788;40.218;44.486;2023-12-04T01:44:14;89438.22;;;6.71;40.90
82927;BME280;72788;40.218;44.486;2023-12-04T01:46:41;89435.16;;;6.65;40.67
82927;BME280;72788;40.218;44.486;2023-12-04T01:49:08;89434.41;;;6.65;41.15
82927;BME280;72788;40.218;44.486;2023-12-04T01:51:33;89433.69;;;6.68;41.14
82927;BME280;72788;40.218;44.486;2023-12-04T01:54:00;89431.81;;;6.69;41.04
82927;BME280;72788;40.218;44.486;2023-12-04T01:56:29;89433.69;;;6.68;41.43
82927;BME280;72788;40.218;44.486;2023-12-04T01:58:55;89435.91;;;6.66;40.79
82927;BME280;72788;40.218;44.486;2023-12-04T02:01:22;89435.16;;;6.65;40.83
82927;BME280;72788;40.218;44.486;2023-12-04T02:03:49;89431.41;;;6.66;41.07
82927;BME280;72788;40.218;44.486;2023-12-04T02:06:16;89434.75;;;6.63;41.59
82927;BME280;72788;40.218;44.486;2023-12-04T02:08:46;89438.84;;;6.61;41.00
82927;BME280;72788;40.218;44.486;2023-12-04T02:11:12;89440.25;;;6.55;41.14
82927;BME280;72788;40.218;44.486;2023-12-04T02:13:38;89446.22;;;6.52;40.88
82927;BME280;72788;40.218;44.486;2023-12-04T02:16:05;89450.75;;;6.55;41.64
82927;BME280;72788;40.218;44.486;2023-12-04T02:18:34;89451.50;;;6.55;41.74
82927;BME280;72788;40.218;44.486;2023-12-04T02:21:01;89457.94;;;6.58;41.23
82927;BME280;72788;40.218;44.486;2023-12-04T02:23:27;89453.75;;;6.53;40.94
82927;BME280;72788;40.218;44.486;2023-12-04T02:25:58;89453.16;;;6.41;41.86
82927;BME280;72788;40.218;44.486;2023-12-04T02:28:28;89469.25;;;6.39;41.25
82927;BME280;72788;40.218;44.486;2023-12-04T02:30:57;89467.75;;;6.38;41.14
82927;BME280;72788;40.218;44.486;2023-12-04T02:33:24;89467.72;;;6.35;41.79
82927;BME280;72788;40.218;44.486;2023-12-04T02:35:52;89472.16;;;6.31;42.10
82927;BME280;72788;40.218;44.486;2023-12-04T02:38:18;89468.34;;;6.28;42.03
82927;BME280;72788;40.218;44.486;2023-12-04T02:40:44;89466.75;;;6.24;41.54
82927;BME280;72788;40.218;44.486;2023-12-04T02:43:10;89467.91;;;6.23;42.26
82927;BME280;72788;40.218;44.486;2023-12-04T02:45:36;89476.56;;;6.27;41.77
82927;BME280;72788;40.218;44.486;2023-12-04T02:48:02;89479.44;;;6.18;41.84
82927;BME280;72788;40.218;44.486;2023-12-04T02:50:27;89480.72;;;6.05;42.05
82927;BME280;72788;40.218;44.486;2023-12-04T02:52:53;89486.59;;;5.98;42.11
82927;BME280;72788;40.218;44.486;2023-12-04T02:55:19;89494.34;;;5.91;42.00
82927;BME280;72788;40.218;44.486;2023-12-04T02:57:44;89488.28;;;5.87;42.30
82927;BME280;72788;40.218;44.486;2023-12-04T03:00:10;89475.25;;;5.91;42.56
82927;BME280;72788;40.218;44.486;2023-12-04T03:02:36;89492.06;;;5.90;42.06
82927;BME280;72788;40.218;44.486;2023-12-04T03:05:02;89477.22;;;5.78;42.95
82927;BME280;72788;40.218;44.486;2023-12-04T03:07:28;89470.00;;;5.71;42.91
82927;BME280;72788;40.218;44.486;2023-12-04T03:09:53;89476.53;;;5.81;43.39
82927;BME280;72788;40.218;44.486;2023-12-04T03:12:19;89479.66;;;5.87;42.61
82927;BME280;72788;40.218;44.486;2023-12-04T03:14:45;89473.78;;;5.93;42.37
82927;BME280;72788;40.218;44.486;2023-12-04T03:17:10;89489.94;;;5.95;43.05
82927;BME280;72788;40.218;44.486;2023-12-04T03:19:36;89489.88;;;5.92;42.79
82927;BME280;72788;40.218;44.486;2023-12-04T03:22:02;89496.78;;;5.84;42.40
82927;BME280;72788;40.218;44.486;2023-12-04T03:24:27;89496.78;;;5.84;42.23
82927;BME280;72788;40.218;44.486;2023-12-04T03:26:53;89496.78;;;5.84;42.70
82927;BME280;72788;40.218;44.486;2023-12-04T03:29:19;89496.34;;;5.79;42.46
82927;BME280;72788;40.218;44.486;2023-12-04T03:31:44;89495.78;;;5.69;42.70
82927;BME280;72788;40.218;44.486;2023-12-04T03:34:10;89498.06;;;5.71;43.54
82927;BME280;72788;40.218;44.486;2023-12-04T03:36:36;89499.59;;;5.72;42.53
82927;BME280;72788;40.218;44.486;2023-12-04T03:39:01;89497.44;;;5.78;42.89
82927;BME280;72788;40.218;44.486;2023-12-04T03:41:28;89502.56;;;5.90;42.70
82927;BME280;72788;40.218;44.486;2023-12-04T03:43:53;89496.28;;;5.94;42.43
82927;BME280;72788;40.218;44.486;2023-12-04T03:46:19;89498.66;;;6.03;42.79
82927;BME280;72788;40.218;44.486;2023-12-04T03:48:45;89498.34;;;6.08;43.08
82927;BME280;72788;40.218;44.486;2023-12-04T03:51:11;89501.50;;;6.17;42.41
82927;BME280;72788;40.218;44.486;2023-12-04T03:53:36;89488.88;;;6.23;42.03
82927;BME280;72788;40.218;44.486;2023-12-04T03:56:02;89498.44;;;6.34;42.18
82927;BME280;72788;40.218;44.486;2023-12-04T03:58:28;89499.13;;;6.31;42.27
82927;BME280;72788;40.218;44.486;2023-12-04T04:00:53;89497.13;;;6.25;42.30
82927;BME280;72788;40.218;44.486;2023-12-04T04:03:19;89505.25;;;6.16;42.43
82927;BME280;72788;40.218;44.486;2023-12-04T04:05:45;89499.88;;;6.09;42.50
82927;BME280;72788;40.218;44.486;2023-12-04T04:08:10;89497.97;;;6.06;42.53
82927;BME280;72788;40.218;44.486;2023-12-04T04:10:36;89497.16;;;6.02;42.81
82927;BME280;72788;40.218;44.486;2023-12-04T04:13:02;89500.47;;;5.99;42.38
82927;BME280;72788;40.218;44.486;2023-12-04T04:15:28;89498.19;;;5.97;42.53
82927;BME280;72788;40.218;44.486;2023-12-04T04:17:53;89501.97;;;6.00;42.13
82927;BME280;72788;40.218;44.486;2023-12-04T04:20:20;89506.53;;;6.03;42.34
82927;BME280;72788;40.218;44.486;2023-12-04T04:22:48;89517.47;;;6.08;42.75
82927;BME280;72788;40.218;44.486;2023-12-04T04:25:13;89514.56;;;6.13;42.34
82927;BME280;72788;40.218;44.486;2023-12-04T04:27:39;89516.03;;;6.11;42.29
82927;BME280;72788;40.218;44.486;2023-12-04T04:30:05;89514.53;;;6.10;42.09
82927;BME280;72788;40.218;44.486;2023-12-04T04:32:31;89519.75;;;6.10;42.89
82927;BME280;72788;40.218;44.486;2023-12-04T04:34:57;89521.69;;;6.13;42.54
82927;BME280;72788;40.218;44.486;2023-12-04T04:37:23;89524.78;;;6.18;42.78
82927;BME280;72788;40.218;44.486;2023-12-04T04:39:48;89522.63;;;6.24;42.58
82927;BME280;72788;40.218;44.486;2023-12-04T04:42:14;89521.19;;;6.27;41.81
82927;BME280;72788;40.218;44.486;2023-12-04T04:44:40;89525.78;;;6.33;42.37
82927;BME280;72788;40.218;44.486;2023-12-04T04:47:06;89520.75;;;6.25;42.05
82927;BME280;72788;40.218;44.486;2023-12-04T04:49:32;89522.16;;;6.18;42.62
82927;BME280;72788;40.218;44.486;2023-12-04T04:51:57;89515.44;;;6.21;42.81
82927;BME280;72788;40.218;44.486;2023-12-04T04:54:23;89522.22;;;6.22;42.52
82927;BME280;72788;40.218;44.486;2023-12-04T04:56:49;89519.47;;;6.15;42.77
82927;BME280;72788;40.218;44.486;2023-12-04T04:59:14;89528.16;;;6.19;42.77
82927;BME280;72788;40.218;44.486;2023-12-04T05:01:40;89526.28;;;6.19;42.34
82927;BME280;72788;40.218;44.486;2023-12-04T05:04:06;89524.41;;;6.20;42.52
82927;BME280;72788;40.218;44.486;2023-12-04T05:06:31;89533.47;;;6.23;42.75
82927;BME280;72788;40.218;44.486;2023-12-04T05:08:57;89532.81;;;6.29;43.08
82927;BME280;72788;40.218;44.486;2023-12-04T05:11:23;89535.66;;;6.43;43.05
82927;BME280;72788;40.218;44.486;2023-12-04T05:13:49;89536.31;;;6.59;42.74
82927;BME280;72788;40.218;44.486;2023-12-04T05:16:15;89547.09;;;6.77;42.19
82927;BME280;72788;40.218;44.486;2023-12-04T05:18:41;89550.28;;;6.90;42.59
82927;BME280;72788;40.218;44.486;2023-12-04T05:21:10;89542.53;;;7.00;41.83
82927;BME280;72788;40.218;44.486;2023-12-04T05:23:36;89543.16;;;7.17;42.20
82927;BME280;72788;40.218;44.486;2023-12-04T05:26:02;89540.34;;;7.32;42.13
82927;BME280;72788;40.218;44.486;2023-12-04T05:28:28;89536.03;;;7.47;41.74
82927;BME280;72788;40.218;44.486;2023-12-04T05:30:54;89536.56;;;7.59;41.35
82927;BME280;72788;40.218;44.486;2023-12-04T05:33:19;89544.63;;;7.74;41.30
82927;BME280;72788;40.218;44.486;2023-12-04T05:35:47;89546.97;;;7.82;41.98
82927;BME280;72788;40.218;44.486;2023-12-04T05:38:13;89550.88;;;7.95;41.17
82927;BME280;72788;40.218;44.486;2023-12-04T05:40:39;89549.84;;;8.03;40.96
82927;BME280;72788;40.218;44.486;2023-12-04T05:43:05;89548.06;;;8.15;40.71
82927;BME280;72788;40.218;44.486;2023-12-04T05:45:30;89542.13;;;8.21;40.50
82927;BME280;72788;40.218;44.486;2023-12-04T05:47:56;89533.22;;;8.29;40.99
82927;BME280;72788;40.218;44.486;2023-12-04T05:50:21;89548.00;;;8.44;40.49
82927;BME280;72788;40.218;44.486;2023-12-04T05:52:47;89543.19;;;8.50;40.51
82927;BME280;72788;40.218;44.486;2023-12-04T05:55:13;89540.56;;;8.53;39.98
82927;BME280;72788;40.218;44.486;2023-12-04T05:57:39;89548.22;;;8.66;40.02
82927;BME280;72788;40.218;44.486;2023-12-04T06:00:06;89539.59;;;8.72;40.30
82927;BME280;72788;40.218;44.486;2023-12-04T06:02:42;89543.41;;;8.78;40.28
82927;BME280;72788;40.218;44.486;2023-12-04T06:05:08;89541.94;;;8.84;40.03
82927;BME280;72788;40.218;44.486;2023-12-04T06:07:35;89538.22;;;8.89;39.78
82927;BME280;72788;40.218;44.486;2023-12-04T06:10:01;89539.38;;;8.95;40.04
82927;BME280;72788;40.218;44.486;2023-12-04T06:12:26;89542.13;;;9.06;40.19
82927;BME280;72788;40.218;44.486;2023-12-04T06:14:52;89533.50;;;9.12;39.80
82927;BME280;72788;40.218;44.486;2023-12-04T06:17:17;89542.97;;;9.20;39.93
82927;BME280;72788;40.218;44.486;2023-12-04T06:19:43;89525.66;;;9.26;39.71
82927;BME280;72788;40.218;44.486;2023-12-04T06:22:09;89531.34;;;9.32;40.23
82927;BME280;72788;40.218;44.486;2023-12-04T06:24:35;89539.69;;;9.41;40.17
82927;BME280;72788;40.218;44.486;2023-12-04T06:27:01;89536.34;;;9.51;39.65
82927;BME280;72788;40.218;44.486;2023-12-04T06:29:27;89545.03;;;9.55;39.53
82927;BME280;72788;40.218;44.486;2023-12-04T06:31:53;89547.69;;;9.59;39.40
82927;BME280;72788;40.218;44.486;2023-12-04T06:34:19;89539.06;;;9.65;39.44
82927;BME280;72788;40.218;44.486;2023-12-04T06:36:45;89555.66;;;9.73;39.80
82927;BME280;72788;40.218;44.486;2023-12-04T06:39:11;89542.13;;;9.81;39.41
82927;BME280;72788;40.218;44.486;2023-12-04T06:41:41;89538.81;;;9.91;39.19
82927;BME280;72788;40.218;44.486;2023-12-04T06:44:08;89544.13;;;10.02;39.59
82927;BME280;72788;40.218;44.486;2023-12-04T06:46:37;89542.25;;;10.13;38.49
82927;BME280;72788;40.218;44.486;2023-12-04T06:49:04;89546.13;;;10.30;38.95
82927;BME280;72788;40.218;44.486;2023-12-04T06:51:32;89549.53;;;10.44;38.58
82927;BME280;72788;40.218;44.486;2023-12-04T06:53:58;89548.06;;;10.58;38.61
82927;BME280;72788;40.218;44.486;2023-12-04T06:56:23;89544.66;;;10.68;38.74
82927;BME280;72788;40.218;44.486;2023-12-04T06:58:49;89540.91;;;10.72;38.52
82927;BME280;72788;40.218;44.486;2023-12-04T07:01:15;89550.72;;;10.79;37.75
82927;BME280;72788;40.218;44.486;2023-12-04T07:03:40;89549.59;;;10.83;38.40
82927;BME280;72788;40.218;44.486;2023-12-04T07:06:06;89554.88;;;10.90;38.38
82927;BME280;72788;40.218;44.486;2023-12-04T07:08:32;89560.91;;;10.98;38.27
82927;BME280;72788;40.218;44.486;2023-12-04T07:10:58;89552.25;;;11.01;38.03
82927;BME280;72788;40.218;44.486;2023-12-04T07:13:23;89552.63;;;11.00;37.25
82927;BME280;72788;40.218;44.486;2023-12-04T07:15:49;89548.09;;;11.00;37.36
82927;BME280;72788;40.218;44.486;2023-12-04T07:18:15;89550.72;;;11.00;38.09
82927;BME280;72788;40.218;44.486;2023-12-04T07:20:40;89546.97;;;11.05;37.87
82927;BME280;72788;40.218;44.486;2023-12-04T07:23:06;89549.59;;;11.08;38.01
82927;BME280;72788;40.218;44.486;2023-12-04T07:25:32;89557.13;;;11.10;38.24
82927;BME280;72788;40.218;44.486;2023-12-04T07:27:57;89544.69;;;11.07;38.51
82927;BME280;72788;40.218;44.486;2023-12-04T07:30:24;89548.09;;;11.04;38.92
82927;BME280;72788;40.218;44.486;2023-12-04T07:32:50;89547.31;;;11.03;38.30
82927;BME280;72788;40.218;44.486;2023-12-04T07:35:16;89539.03;;;11.01;38.95
82927;BME280;72788;40.218;44.486;2023-12-04T07:37:43;89536.38;;;10.98;39.21
82927;BME280;72788;40.218;44.486;2023-12-04T07:40:09;89549.63;;;10.98;38.21
82927;BME280;72788;40.218;44.486;2023-12-04T07:42:36;89534.47;;;10.95;38.79
82927;BME280;72788;40.218;44.486;2023-12-04T07:45:02;89532.97;;;10.90;39.14
82927;BME280;72788;40.218;44.486;2023-12-04T07:47:29;89545.44;;;10.89;39.14
82927;BME280;72788;40.218;44.486;2023-12-04T07:49:54;89534.50;;;10.84;38.96
82927;BME280;72788;40.218;44.486;2023-12-04T07:52:20;89534.50;;;10.80;38.83
82927;BME280;72788;40.218;44.486;2023-12-04T07:54:45;89535.25;;;10.81;38.66
82927;BME280;72788;40.218;44.486;2023-12-04T07:57:11;89532.97;;;10.79;39.17
82927;BME280;72788;40.218;44.486;2023-12-04T07:59:37;89525.81;;;10.76;38.95
82927;BME280;72788;40.218;44.486;2023-12-04T08:02:03;89527.31;;;10.77;38.65
82927;BME280;72788;40.218;44.486;2023-12-04T08:04:28;89527.69;;;10.79;39.64
82927;BME280;72788;40.218;44.486;2023-12-04T08:06:54;89532.22;;;10.79;39.86
82927;BME280;72788;40.218;44.486;2023-12-04T08:09:20;89520.50;;;10.80;39.56
82927;BME280;72788;40.218;44.486;2023-12-04T08:11:46;89522.41;;;10.79;39.23
82927;BME280;72788;40.218;44.486;2023-12-04T08:14:12;89529.22;;;10.77;39.53
82927;BME280;72788;40.218;44.486;2023-12-04T08:16:37;89520.88;;;10.75;39.38
82927;BME280;72788;40.218;44.486;2023-12-04T08:19:03;89519.75;;;10.76;39.19
82927;BME280;72788;40.218;44.486;2023-12-04T08:21:29;89518.63;;;10.77;40.12
82927;BME280;72788;40.218;44.486;2023-12-04T08:23:54;89512.22;;;10.81;39.67
82927;BME280;72788;40.218;44.486;2023-12-04T08:26:24;89510.72;;;10.77;39.49
82927;BME280;72788;40.218;44.486;2023-12-04T08:28:53;89508.06;;;10.84;39.19
82927;BME280;72788;40.218;44.486;2023-12-04T08:31:19;89514.47;;;10.83;39.45
82927;BME280;72788;40.218;44.486;2023-12-04T08:33:44;89503.91;;;10.79;39.67
82927;BME280;72788;40.218;44.486;2023-12-04T08:36:11;89501.25;;;10.79;39.25
82927;BME280;72788;40.218;44.486;2023-12-04T08:38:37;89500.91;;;10.81;39.35
82927;BME280;72788;40.218;44.486;2023-12-04T08:41:04;89499.75;;;10.78;39.62
82927;BME280;72788;40.218;44.486;2023-12-04T08:43:30;89492.97;;;10.74;40.59
82927;BME280;72788;40.218;44.486;2023-12-04T08:45:55;89486.53;;;10.78;40.03
82927;BME280;72788;40.218;44.486;2023-12-04T08:48:21;89487.69;;;10.84;39.66
82927;BME280;72788;40.218;44.486;2023-12-04T08:50:47;89486.53;;;10.89;39.94
82927;BME280;72788;40.218;44.486;2023-12-04T08:53:13;89483.88;;;10.96;39.36
82927;BME280;72788;40.218;44.486;2023-12-04T08:55:39;89481.59;;;11.02;39.35
82927;BME280;72788;40.218;44.486;2023-12-04T08:58:05;89475.94;;;11.03;39.86
82927;BME280;72788;40.218;44.486;2023-12-04T09:00:32;89467.25;;;11.10;39.16
82927;BME280;72788;40.218;44.486;2023-12-04T09:02:58;89469.91;;;11.06;39.30
82927;BME280;72788;40.218;44.486;2023-12-04T09:05:23;89462.72;;;11.07;39.73
82927;BME280;72788;40.218;44.486;2023-12-04T09:07:49;89462.69;;;11.24;39.98
82927;BME280;72788;40.218;44.486;2023-12-04T09:10:15;89455.50;;;11.32;39.63
82927;BME280;72788;40.218;44.486;2023-12-04T09:12:40;89451.72;;;11.29;39.65
82927;BME280;72788;40.218;44.486;2023-12-04T09:15:06;89453.22;;;11.30;39.35
82927;BME280;72788;40.218;44.486;2023-12-04T09:17:32;89450.16;;;11.43;39.74
82927;BME280;72788;40.218;44.486;2023-12-04T09:19:58;89443.34;;;11.52;39.42
82927;BME280;72788;40.218;44.486;2023-12-04T09:22:24;89442.56;;;11.59;38.82
82927;BME280;72788;40.218;44.486;2023-12-04T09:24:50;89437.22;;;11.69;38.88
82927;BME280;72788;40.218;44.486;2023-12-04T09:27:15;89437.97;;;11.77;39.09
82927;BME280;72788;40.218;44.486;2023-12-04T09:29:42;89433.81;;;11.79;38.61
82927;BME280;72788;40.218;44.486;2023-12-04T09:32:08;89441.03;;;11.75;38.46
82927;BME280;72788;40.218;44.486;2023-12-04T09:34:35;89439.13;;;11.76;38.35
82927;BME280;72788;40.218;44.486;2023-12-04T09:37:01;89437.94;;;11.80;39.23
82927;BME280;72788;40.218;44.486;2023-12-04T09:39:28;89439.44;;;11.89;38.25
82927;BME280;72788;40.218;44.486;2023-12-04T09:41:55;89439.03;;;11.94;38.36
82927;BME280;72788;40.218;44.486;2023-12-04T09:44:22;89436.75;;;11.99;38.62
82927;BME280;72788;40.218;44.486;2023-12-04T09:46:51;89431.81;;;12.01;38.59
82927;BME280;72788;40.218;44.486;2023-12-04T09:49:17;89436.28;;;12.08;38.06
82927;BME280;72788;40.218;44.486;2023-12-04T09:51:44;89435.91;;;12.13;38.32
82927;BME280;72788;40.218;44.486;2023-12-04T09:54:11;89436.59;;;12.20;38.02
82927;BME280;72788;40.218;44.486;2023-12-04T09:56:37;89433.88;;;12.31;37.90
82927;BME280;72788;40.218;44.486;2023-12-04T09:59:05;89433.84;;;12.42;36.73
82927;BME280;72788;40.218;44.486;2023-12-04T10:01:32;89424.28;;;12.51;36.99
82927;BME280;72788;40.218;44.486;2023-12-04T10:03:58;89430.28;;;12.59;37.06
82927;BME280;72788;40.218;44.486;2023-12-04T10:06:27;89425.28;;;12.68;36.90
82927;BME280;72788;40.218;44.486;2023-12-04T10:08:57;89429.09;;;12.67;37.22
82927;BME280;72788;40.218;44.486;2023-12-04T10:11:26;89418.06;;;12.72;37.02
82927;BME280;72788;40.218;44.486;2023-12-04T10:13:53;89422.59;;;12.75;37.05
82927;BME280;72788;40.218;44.486;2023-12-04T10:16:36;89428.59;;;12.79;36.37
82927;BME280;72788;40.218;44.486;2023-12-04T10:19:22;89432.41;;;12.78;35.75
82927;BME280;72788;40.218;44.486;2023-12-04T10:21:49;89430.53;;;12.75;36.52
82927;BME280;72788;40.218;44.486;2023-12-04T10:24:28;89418.78;;;12.76;36.40
82927;BME280;72788;40.218;44.486;2023-12-04T10:26:55;89421.84;;;12.71;37.08
82927;BME280;72788;40.218;44.486;2023-12-04T10:29:21;89426.44;;;12.67;37.10
82927;BME280;72788;40.218;44.486;2023-12-04T10:31:47;89413.56;;;12.69;37.17
82927;BME280;72788;40.218;44.486;2023-12-04T10:34:16;89415.47;;;12.65;37.16
82927;BME280;72788;40.218;44.486;2023-12-04T10:36:41;89412.09;;;12.61;36.74
82927;BME280;72788;40.218;44.486;2023-12-04T10:39:07;89422.38;;;12.52;36.59
82927;BME280;72788;40.218;44.486;2023-12-04T10:41:33;89415.63;;;12.44;37.38
82927;BME280;72788;40.218;44.486;2023-12-04T10:44:00;89421.78;;;12.33;36.92
82927;BME280;72788;40.218;44.486;2023-12-04T10:46:27;89417.63;;;12.29;36.89
82927;BME280;72788;40.218;44.486;2023-12-04T10:48:53;89419.19;;;12.23;37.48
82927;BME280;72788;40.218;44.486;2023-12-04T10:51:19;89421.47;;;12.21;37.16
82927;BME280;72788;40.218;44.486;2023-12-04T10:53:47;89420.75;;;12.17;36.96
82927;BME280;72788;40.218;44.486;2023-12-04T10:56:35;89412.41;;;12.18;36.98
82927;BME280;72788;40.218;44.486;2023-12-04T10:59:11;89419.53;;;12.28;37.22
82927;BME280;72788;40.218;44.486;2023-12-04T11:01:42;89414.94;;;12.36;37.67
82927;BME280;72788;40.218;44.486;2023-12-04T11:04:17;89411.84;;;12.45;37.19
82927;BME280;72788;40.218;44.486;2023-12-04T11:06:49;89416.38;;;12.44;36.94
82927;BME280;72788;40.218;44.486;2023-12-04T11:09:16;89417.56;;;12.40;37.45
82927;BME280;72788;40.218;44.486;2023-12-04T11:11:48;89410.03;;;12.31;37.46
82927;BME280;72788;40.218;44.486;2023-12-04T11:14:20;89413.13;;;12.26;36.91
82927;BME280;72788;40.218;44.486;2023-12-04T11:16:50;89405.63;;;12.14;37.13
82927;BME280;72788;40.218;44.486;2023-12-04T11:21:45;89401.53;;;12.06;37.75
82927;BME280;72788;40.218;44.486;2023-12-04T11:24:12;89398.13;;;12.02;37.40
82927;BME280;72788;40.218;44.486;2023-12-04T11:26:41;89392.47;;;11.96;37.86
82927;BME280;72788;40.218;44.486;2023-12-04T11:29:09;89397.75;;;12.00;37.67
82927;BME280;72788;40.218;44.486;2023-12-04T11:31:38;89389.38;;;12.08;37.41
82927;BME280;72788;40.218;44.486;2023-12-04T11:34:04;89404.13;;;12.13;38.04
82927;BME280;72788;40.218;44.486;2023-12-04T11:36:30;89387.41;;;12.19;37.67
82927;BME280;72788;40.218;44.486;2023-12-04T11:38:55;89383.63;;;12.20;37.38
82927;BME280;72788;40.218;44.486;2023-12-04T11:41:24;89391.94;;;12.26;37.63
82927;BME280;72788;40.218;44.486;2023-12-04T11:43:51;89394.16;;;12.31;37.17
82927;BME280;72788;40.218;44.486;2023-12-04T11:46:21;89390.75;;;12.34;37.33
82927;BME280;72788;40.218;44.486;2023-12-04T11:48:49;89396.78;;;12.35;37.06
82927;BME280;72788;40.218;44.486;2023-12-04T11:54:17;89393.41;;;12.30;36.97
82927;BME280;72788;40.218;44.486;2023-12-04T11:59:37;89398.59;;;12.45;37.07
82927;BME280;72788;40.218;44.486;2023-12-04T12:02:07;89392.53;;;12.44;36.87
82927;BME280;72788;40.218;44.486;2023-12-04T12:04:33;89399.38;;;12.42;36.93
82927;BME280;72788;40.218;44.486;2023-12-04T12:06:59;89401.66;;;12.40;37.00
82927;BME280;72788;40.218;44.486;2023-12-04T12:09:31;89401.28;;;12.41;36.71
82927;BME280;72788;40.218;44.486;2023-12-04T12:12:02;89397.91;;;12.37;37.12
82927;BME280;72788;40.218;44.486;2023-12-04T12:14:29;89402.38;;;12.44;37.03
82927;BME280;72788;40.218;44.486;2023-12-04T12:16:55;89406.19;;;12.43;36.91
82927;BME280;72788;40.218;44.486;2023-12-04T12:19:21;89395.19;;;12.44;37.27
82927;BME280;72788;40.218;44.486;2023-12-04T12:21:50;89398.25;;;12.43;37.09
82927;BME280;72788;40.218;44.486;2023-12-04T12:24:17;89399.75;;;12.44;36.99
82927;BME280;72788;40.218;44.486;2023-12-04T12:26:44;89403.16;;;12.41;37.00
82927;BME280;72788;40.218;44.486;2023-12-04T12:29:11;89397.53;;;12.35;36.95
82927;BME280;72788;40.218;44.486;2023-12-04T12:31:36;89405.19;;;12.26;37.59
82927;BME280;72788;40.218;44.486;2023-12-04T12:34:02;89397.59;;;12.24;37.47
82927;BME280;72788;40.218;44.486;2023-12-04T12:36:29;89394.19;;;12.27;37.43
82927;BME280;72788;40.218;44.486;2023-12-04T12:38:54;89400.19;;;12.31;37.40
82927;BME280;72788;40.218;44.486;2023-12-04T12:41:21;89391.88;;;12.33;37.20
82927;BME280;72788;40.218;44.486;2023-12-04T12:43:51;89394.53;;;12.33;36.60
82927;BME280;72788;40.218;44.486;2023-12-04T12:46:17;89402.13;;;12.27;37.02
82927;BME280;72788;40.218;44.486;2023-12-04T12:48:43;89401.00;;;12.25;37.53
82927;BME280;72788;40.218;44.486;2023-12-04T12:51:09;89402.94;;;12.21;37.27
82927;BME280;72788;40.218;44.486;2023-12-04T12:53:36;89399.56;;;12.13;37.15
82927;BME280;72788;40.218;44.486;2023-12-04T12:56:03;89399.94;;;12.12;37.46
82927;BME280;72788;40.218;44.486;2023-12-04T12:58:29;89404.91;;;12.06;37.83
82927;BME280;72788;40.218;44.486;2023-12-04T13:00:55;89405.31;;;12.05;36.94